Time;durP1;ratioP1;P1;durP2;ratioP2;P2;SDS_P1;SDS_P2;PMS_P1;PMS_P2;Temp;Humidity;BMP_temperature;BMP_pressure;BME280_temperature;BME280_humidity;BME280_pressure;Samples;Min_cycle;Max_cycle;Signal;HPM_P1;HPM_P2
2023/01/13 00:01:06;;;;;;;0.10;0.10;;;;;;;11.67;80.80;100189.88;5031592;28;20409;-60
2023/01/13 00:03:35;;;;;;;0.40;0.30;;;;;;;11.72;80.19;100182.00;5036552;28;20072;-60
2023/01/13 00:06:01;;;;;;;1.35;0.20;;;;;;;11.74;79.95;100168.16;5030250;28;20045;-60
2023/01/13 00:08:27;;;;;;;0.20;0.20;;;;;;;11.69;80.51;100166.56;5029532;28;20484;-60
2023/01/13 00:10:52;;;;;;;0.73;0.20;;;;;;;11.65;80.93;100178.69;5033972;28;20106;-60
2023/01/13 00:13:25;;;;;;;0.20;0.20;;;;;;;11.63;81.77;100175.31;5023862;28;20047;-65
2023/01/13 00:16:01;;;;;;;0.45;0.20;;;;;;;11.62;81.27;100177.91;5020993;28;20202;-65
2023/01/13 00:18:28;;;;;;;0.30;0.30;;;;;;;11.55;82.01;100166.84;5033507;28;20143;-65
2023/01/13 00:21:04;;;;;;;0.15;0.15;;;;;;;11.52;82.15;100163.44;5032267;28;20037;-65
2023/01/13 00:23:32;;;;;;;0.20;0.20;;;;;;;11.47;82.64;100154.94;5035515;28;20478;-65
2023/01/13 00:26:00;;;;;;;0.20;0.20;;;;;;;11.49;82.45;100158.34;5032407;28;20512;-65
2023/01/13 00:28:26;;;;;;;0.63;0.20;;;;;;;11.48;82.13;100154.06;5031436;28;20036;-65
2023/01/13 00:30:52;;;;;;;0.55;0.10;;;;;;;11.47;82.34;100152.38;5034526;28;20036;-65
2023/01/13 00:33:17;;;;;;;0.73;0.20;;;;;;;11.46;82.66;100159.28;5036923;28;20043;-65
2023/01/13 00:35:43;;;;;;;0.32;0.20;;;;;;;11.52;81.92;100155.69;5033725;28;20432;-65
2023/01/13 00:38:08;;;;;;;0.90;0.20;;;;;;;11.49;82.08;100155.75;5029472;28;20047;-65
2023/01/13 00:40:33;;;;;;;0.22;0.20;;;;;;;11.53;82.15;100147.91;5033160;28;20076;-64
2023/01/13 00:45:43;;;;;;;0.28;0.10;;;;;;;11.52;81.84;100147.94;5030773;28;20688;-66
2023/01/13 00:48:08;;;;;;;0.10;0.10;;;;;;;11.49;82.50;100146.25;5031179;28;20040;-65
2023/01/13 00:50:34;;;;;;;0.75;0.20;;;;;;;11.51;82.02;100154.00;5033169;28;20033;-65
2023/01/13 00:52:59;;;;;;;1.27;0.20;;;;;;;11.52;81.91;100145.34;5031815;28;20043;-65
2023/01/13 00:55:25;;;;;;;0.35;0.20;;;;;;;11.52;82.05;100147.94;5030906;28;20064;-66
2023/01/13 00:57:50;;;;;;;0.20;0.20;;;;;;;11.50;82.31;100152.28;5033753;28;20039;-65
2023/01/13 01:00:16;;;;;;;0.10;0.10;;;;;;;11.49;82.95;100154.03;5035403;28;20175;-65
2023/01/13 01:02:42;;;;;;;0.77;0.20;;;;;;;11.47;82.68;100157.53;5036309;28;20041;-65
2023/01/13 01:05:07;;;;;;;0.20;0.20;;;;;;;11.47;82.82;100150.63;5033268;28;20114;-65
2023/01/13 01:07:33;;;;;;;0.13;0.13;;;;;;;11.44;83.63;100149.84;5034399;28;20041;-66
2023/01/13 01:09:58;;;;;;;0.20;0.20;;;;;;;11.39;83.57;100156.81;5036844;28;20032;-65
2023/01/13 01:12:23;;;;;;;0.70;0.32;;;;;;;11.38;83.40;100161.16;5034820;28;20049;-65
2023/01/13 01:14:49;;;;;;;0.47;0.20;;;;;;;11.40;83.47;100168.84;5035295;28;20033;-66
2023/01/13 01:17:14;;;;;;;0.35;0.22;;;;;;;11.24;87.53;100181.28;5036650;28;20064;-66
2023/01/13 01:19:41;;;;;;;0.22;0.22;;;;;;;10.97;90.10;100194.75;5031646;28;20048;-65
2023/01/13 01:22:06;;;;;;;1.35;0.43;;;;;;;10.72;87.84;100187.44;5029735;28;20062;-64
2023/01/13 01:24:31;;;;;;;0.47;0.30;;;;;;;10.56;87.45;100177.44;5033833;28;20036;-64
2023/01/13 01:26:57;;;;;;;0.95;0.30;;;;;;;10.43;87.91;100163.00;5031418;28;20137;-64
2023/01/13 01:29:22;;;;;;;1.58;0.30;;;;;;;10.32;88.19;100180.44;5032834;28;20037;-63
2023/01/13 01:31:47;;;;;;;2.97;0.40;;;;;;;10.23;86.77;100171.97;5034163;28;20053;-64
2023/01/13 01:34:13;;;;;;;1.00;0.68;;;;;;;10.18;87.52;100189.25;5031372;28;20055;-63
2023/01/13 01:36:38;;;;;;;0.77;0.20;;;;;;;10.14;86.78;100185.03;5034773;28;20044;-64
2023/01/13 01:39:04;;;;;;;1.23;0.40;;;;;;;10.09;87.21;100183.34;5031999;28;20525;-64
2023/01/13 01:41:32;;;;;;;1.05;0.30;;;;;;;10.06;86.08;100188.59;5034003;28;20409;-63
2023/01/13 01:44:16;;;;;;;0.88;0.30;;;;;;;10.05;84.20;100189.47;5033205;28;20064;-64
2023/01/13 01:46:43;;;;;;;0.95;0.40;;;;;;;10.16;81.31;100198.75;5034169;28;20037;-64
2023/01/13 01:49:14;;;;;;;2.05;0.52;;;;;;;10.22;79.61;100196.06;5034423;28;20029;-64
2023/01/13 01:51:48;;;;;;;0.98;0.43;;;;;;;10.26;79.62;100198.59;5054594;28;20505;-64
2023/01/13 01:54:19;;;;;;;0.30;0.30;;;;;;;10.24;79.16;100207.22;5055629;28;20751;-64
2023/01/13 01:56:46;;;;;;;2.08;0.50;;;;;;;10.29;77.39;100199.41;5055008;28;20033;-64
2023/01/13 01:59:12;;;;;;;1.15;0.50;;;;;;;10.32;77.13;100198.50;5056146;28;20044;-63
2023/01/13 02:01:40;;;;;;;1.20;0.68;;;;;;;10.28;78.20;100210.63;5058180;28;20052;-63
2023/01/13 02:04:13;;;;;;;4.30;0.50;;;;;;;10.30;78.58;100223.53;5057217;28;20034;-64
2023/01/13 02:06:38;;;;;;;4.15;0.63;;;;;;;10.20;80.39;100222.81;5039023;28;20044;-64
2023/01/13 02:09:04;;;;;;;1.55;0.50;;;;;;;10.07;82.03;100216.97;5036878;28;20108;-64
2023/01/13 02:14:20;;;;;;;2.47;0.40;;;;;;;9.79;85.26;100212.25;5035172;28;20572;-65
2023/01/13 02:16:58;;;;;;;2.42;0.60;;;;;;;9.69;86.15;100203.75;5037758;28;20083;-65
2023/01/13 02:19:49;;;;;;;2.90;0.50;;;;;;;9.64;85.42;100201.22;5033645;28;20033;-64
2023/01/13 02:22:34;;;;;;;0.82;0.30;;;;;;;9.59;86.25;100205.59;5038595;28;20773;-65
2023/01/13 02:25:15;;;;;;;;;;;;;;;9.56;85.37;100182.41;5059212;28;20530;-65
2023/01/13 02:27:57;;;;;;;2.13;0.47;;;;;;;9.51;86.52;100165.28;5034842;28;19931;-65
2023/01/13 02:33:35;;;;;;;3.80;0.43;;;;;;;9.38;88.45;100192.94;5034091;28;20110;-65
2023/01/13 02:36:09;;;;;;;1.33;0.47;;;;;;;9.38;88.87;100205.00;5023437;28;20053;-65
2023/01/13 02:39:08;;;;;;;1.95;0.60;;;;;;;9.35;88.72;100199.88;5036801;28;20037;-64
2023/01/13 02:44:50;;;;;;;0.82;0.50;;;;;;;9.34;87.32;100198.19;5034228;28;20036;-65
2023/01/13 02:47:25;;;;;;;0.73;0.30;;;;;;;9.33;86.72;100205.06;5031987;28;21931;-65
2023/01/13 02:49:59;;;;;;;3.92;0.93;;;;;;;9.30;85.91;100210.25;5037637;28;20040;-65
2023/01/13 02:52:30;;;;;;;0.95;0.35;;;;;;;9.30;84.73;100199.06;5037714;28;20116;-64
2023/01/13 02:55:02;;;;;;;1.65;0.22;;;;;;;9.28;84.76;100198.25;5038408;28;20029;-65
2023/01/13 02:57:30;;;;;;;1.83;0.38;;;;;;;9.24;84.69;100184.53;5036030;28;20047;-65
2023/01/13 02:59:56;;;;;;;1.20;0.30;;;;;;;9.21;84.65;100189.72;5035371;28;20036;-64
2023/01/13 03:02:23;;;;;;;0.82;0.30;;;;;;;9.22;84.21;100206.91;5040112;28;20051;-64
2023/01/13 03:04:50;;;;;;;2.03;0.50;;;;;;;9.20;83.79;100203.50;5039380;28;20523;-64
2023/01/13 03:07:29;;;;;;;0.47;0.30;;;;;;;9.18;84.94;100192.34;5038649;28;20040;-65
2023/01/13 03:10:14;;;;;;;2.38;0.30;;;;;;;9.16;84.99;100190.66;5044231;28;20379;-64
2023/01/13 03:12:52;;;;;;;1.30;0.50;;;;;;;9.15;84.62;100176.91;5022454;28;20444;-65
2023/01/13 03:15:39;;;;;;;0.95;0.57;;;;;;;9.16;84.18;100194.09;5056506;28;20064;-64
2023/01/13 03:18:19;;;;;;;1.20;0.50;;;;;;;9.14;83.41;100194.09;5058468;28;20808;-65
2023/01/13 03:21:09;;;;;;;1.65;0.40;;;;;;;9.12;81.84;100185.53;5060000;28;20029;-65
2023/01/13 03:23:48;;;;;;;2.88;0.40;;;;;;;9.12;81.72;100171.78;5054515;28;20044;-64
2023/01/13 03:26:29;;;;;;;3.85;0.52;;;;;;;9.10;79.89;100156.34;5061756;28;20516;-64
2023/01/13 03:29:09;;;;;;;1.35;0.40;;;;;;;9.10;78.55;100115.09;5059470;28;20690;-65
2023/01/13 03:31:45;;;;;;;1.85;0.60;;;;;;;9.09;77.88;100131.44;5057611;28;20071;-64
2023/01/13 03:34:17;;;;;;;4.35;0.65;;;;;;;9.04;77.36;100137.53;5058114;28;20040;-65
2023/01/13 03:36:46;;;;;;;4.97;0.55;;;;;;;8.99;77.99;100142.72;5059565;28;20645;-64
2023/01/13 03:39:20;;;;;;;2.30;0.63;;;;;;;8.97;77.98;100161.66;5034539;28;20514;-64
2023/01/13 03:42:01;;;;;;;2.72;0.88;;;;;;;8.94;76.96;100157.41;5058474;28;20028;-64
2023/01/13 03:44:34;;;;;;;3.75;0.80;;;;;;;8.96;76.58;100165.13;5062323;28;20032;-65
2023/01/13 03:47:28;;;;;;;3.00;0.70;;;;;;;8.94;77.46;100172.84;5060057;28;20227;-65
2023/01/13 03:50:06;;;;;;;5.65;0.88;;;;;;;8.92;76.71;100169.47;5056513;28;20039;-64
2023/01/13 03:52:46;;;;;;;4.43;0.90;;;;;;;8.94;77.17;100164.28;5061929;28;20079;-65
2023/01/13 03:55:17;;;;;;;4.22;0.80;;;;;;;8.93;77.24;100157.44;5061989;28;20059;-65
2023/01/13 03:58:13;;;;;;;3.75;0.68;;;;;;;8.96;76.43;100159.97;5041109;28;20082;-64
2023/01/13 04:00:45;;;;;;;;;;;;;;;8.94;76.75;100165.13;5060127;28;20052;-64
2023/01/13 04:03:19;;;;;;;3.05;0.60;;;;;;;8.98;75.11;100142.75;5039965;28;19982;-64
2023/01/13 04:05:49;;;;;;;1.70;0.80;;;;;;;8.97;75.95;100157.38;5053831;28;20048;-65
2023/01/13 04:08:23;;;;;;;4.50;1.20;;;;;;;8.97;75.00;100148.78;5055065;28;20068;-65
2023/01/13 04:11:17;;;;;;;4.13;0.98;;;;;;;8.98;74.51;100141.03;5054007;28;20505;-64
2023/01/13 04:13:46;;;;;;;3.17;1.08;;;;;;;8.99;74.78;100142.72;5052408;28;20044;-65
2023/01/13 04:16:12;;;;;;;6.30;0.95;;;;;;;8.99;74.19;100145.31;5057243;28;20040;-64
2023/01/13 04:18:38;;;;;;;6.47;1.10;;;;;;;8.96;75.05;100159.97;5056307;28;20512;-65
2023/01/13 04:21:05;;;;;;;5.85;1.00;;;;;;;8.90;75.37;100166.03;5056401;28;20119;-65
2023/01/13 04:23:31;;;;;;;5.55;0.88;;;;;;;8.80;75.50;100169.59;5055816;28;20036;-65
2023/01/13 04:25:57;;;;;;;9.68;1.23;;;;;;;8.68;75.80;100167.13;5056399;28;20601;-64
2023/01/13 04:28:23;;;;;;;8.95;1.90;;;;;;;8.58;76.17;100171.53;5054199;28;20036;-65
2023/01/13 04:30:48;;;;;;;6.68;1.48;;;;;;;8.43;77.40;100170.81;5054105;28;20067;-64
2023/01/13 04:33:16;;;;;;;7.05;1.75;;;;;;;8.37;77.30;100171.72;5055525;28;20186;-64
2023/01/13 04:35:43;;;;;;;5.65;1.15;;;;;;;8.34;77.35;100182.03;5050916;28;20460;-64
2023/01/13 04:38:14;;;;;;;7.03;1.52;;;;;;;8.32;77.37;100185.50;5035895;28;20059;-64
2023/01/13 04:40:41;;;;;;;9.23;1.70;;;;;;;8.29;78.14;100190.69;5055338;28;20036;-65
2023/01/13 04:43:07;;;;;;;9.38;1.83;;;;;;;8.25;78.05;100187.28;5053402;28;20090;-64
2023/01/13 04:45:33;;;;;;;12.18;2.85;;;;;;;8.21;78.18;100174.44;5056734;28;20043;-65
2023/01/13 04:47:58;;;;;;;8.65;1.80;;;;;;;8.22;78.17;100174.44;5052680;28;20037;-64
2023/01/13 04:50:24;;;;;;;7.95;1.90;;;;;;;8.20;78.72;100188.19;5054856;28;20493;-65
2023/01/13 04:52:51;;;;;;;8.57;1.50;;;;;;;8.26;77.97;100180.41;5052531;28;20167;-64
2023/01/13 04:55:18;;;;;;;13.30;1.98;;;;;;;8.25;78.80;100184.69;5053972;28;20111;-64
2023/01/13 04:57:43;;;;;;;16.33;2.05;;;;;;;8.28;78.27;100179.53;5052744;28;20035;-65
2023/01/13 05:00:12;;;;;;;9.60;1.40;;;;;;;8.22;78.81;100195.03;5034751;28;20032;-64
2023/01/13 05:02:38;;;;;;;10.32;2.30;;;;;;;8.23;78.39;100190.72;5051881;28;20036;-65
2023/01/13 05:05:04;;;;;;;8.27;1.60;;;;;;;8.19;77.92;100191.66;5054174;28;20032;-59
2023/01/13 05:07:30;;;;;;;11.52;2.03;;;;;;;8.19;78.19;100199.38;5036196;28;20028;-59
2023/01/13 05:09:55;;;;;;;11.98;2.08;;;;;;;8.31;76.61;100170.91;5051998;28;20468;-59
2023/01/13 05:17:50;;;;;;;8.73;1.63;;;;;;;8.20;77.06;100172.72;5038550;28;20128;-59
2023/01/13 05:20:15;;;;;;;18.63;2.65;;;;;;;8.24;75.91;100144.41;5055247;28;20048;-59
2023/01/13 05:25:26;;;;;;;14.55;2.22;;;;;;;8.13;77.22;100181.41;5053160;28;20148;-60
2023/01/13 05:27:54;;;;;;;8.18;1.85;;;;;;;8.12;76.77;100172.81;5054344;28;20040;-59
2023/01/13 05:30:31;;;;;;;7.13;1.70;;;;;;;8.13;76.74;100173.66;5055889;28;20047;-59
2023/01/13 05:32:57;;;;;;;11.57;1.70;;;;;;;8.07;76.55;100169.41;5056729;28;20068;-59
2023/01/13 05:35:23;;;;;;;9.82;1.83;;;;;;;7.99;77.01;100177.19;5058103;28;20068;-59
2023/01/13 05:37:48;;;;;;;8.93;1.60;;;;;;;7.93;77.94;100184.09;5057038;28;20119;-59
2023/01/13 05:43:20;;;;;;;13.57;2.03;;;;;;;7.86;78.48;100185.84;5055954;28;20504;-59
2023/01/13 05:46:04;;;;;;;12.98;1.98;;;;;;;7.87;77.56;100185.00;5060379;28;20082;-59
2023/01/13 05:48:35;;;;;;;9.50;1.83;;;;;;;7.84;77.41;100182.44;5057705;28;20111;-59
2023/01/13 05:51:03;;;;;;;7.45;1.30;;;;;;;7.88;77.68;100188.44;5057436;28;20032;-60
2023/01/13 05:53:28;;;;;;;9.02;1.77;;;;;;;7.92;77.10;100190.13;5059707;28;20042;-59
2023/01/13 05:55:54;;;;;;;9.70;1.63;;;;;;;7.99;76.66;100187.50;5040007;28;20044;-59
2023/01/13 05:58:21;;;;;;;7.50;1.83;;;;;;;8.05;76.82;100183.16;5058268;28;20071;-60
2023/01/13 06:00:47;;;;;;;11.55;1.45;;;;;;;8.14;75.82;100193.38;5056584;28;20050;-60
2023/01/13 06:03:14;;;;;;;9.57;1.70;;;;;;;8.21;76.17;100192.47;5055265;28;20780;-59
2023/01/13 06:05:41;;;;;;;10.75;1.45;;;;;;;8.25;75.73;100189.84;5055087;28;20028;-60
2023/01/13 06:08:07;;;;;;;10.60;1.95;;;;;;;8.27;76.06;100198.44;5049875;28;20533;-60
2023/01/13 06:10:33;;;;;;;7.03;1.40;;;;;;;8.26;76.74;100198.44;5052376;28;20048;-60
2023/01/13 06:12:59;;;;;;;5.75;1.60;;;;;;;8.23;76.81;100206.19;5058366;28;20145;-60
2023/01/13 06:15:24;;;;;;;5.43;1.40;;;;;;;8.19;76.70;100215.63;5057754;28;20551;-59
2023/01/13 06:17:49;;;;;;;8.73;1.60;;;;;;;8.19;77.33;100219.97;5055599;28;20048;-60
2023/01/13 06:20:16;;;;;;;5.68;1.52;;;;;;;8.19;76.13;100218.22;5058040;28;20093;-61
2023/01/13 06:22:45;;;;;;;6.78;1.55;;;;;;;8.12;77.42;100233.72;5057751;28;20036;-60
2023/01/13 06:25:32;;;;;;;9.80;1.98;;;;;;;8.06;77.87;100233.78;5057698;28;20048;-59
2023/01/13 06:27:59;;;;;;;5.38;1.30;;;;;;;8.11;77.54;100235.44;5037797;28;20967;-60
2023/01/13 06:30:34;;;;;;;6.50;1.55;;;;;;;8.15;76.91;100236.28;5039077;28;20072;-59
2023/01/13 06:33:03;;;;;;;11.00;1.50;;;;;;;8.18;77.88;100246.56;5041741;28;20055;-60
2023/01/13 06:35:33;;;;;;;9.07;1.30;;;;;;;8.23;77.05;100242.22;5043761;28;20040;-60
2023/01/13 06:38:02;;;;;;;5.40;1.23;;;;;;;8.28;77.05;100246.47;5052183;28;20521;-60
2023/01/13 06:40:28;;;;;;;12.90;2.08;;;;;;;8.34;77.49;100253.28;5034487;28;20048;-60
2023/01/13 06:45:40;;;;;;;5.03;1.42;;;;;;;8.38;78.04;100262.72;5045629;28;20044;-60
2023/01/13 06:48:05;;;;;;;5.25;1.33;;;;;;;8.42;78.14;100260.13;5037218;28;20033;-60
2023/01/13 06:50:31;;;;;;;6.90;1.40;;;;;;;8.46;77.90;100259.19;5034085;28;20035;-60
2023/01/13 06:52:57;;;;;;;12.23;2.33;;;;;;;8.55;76.72;100255.69;5037119;28;20043;-60
2023/01/13 06:55:22;;;;;;;8.70;2.45;;;;;;;8.60;76.72;100253.97;5040231;28;21090;-60
2023/01/13 06:57:48;;;;;;;6.40;1.25;;;;;;;8.61;76.35;100255.66;5059532;28;20485;-60
2023/01/13 07:00:14;;;;;;;7.30;1.40;;;;;;;8.56;77.13;100268.56;5043728;28;20604;-61
2023/01/13 07:02:40;;;;;;;5.53;1.45;;;;;;;8.51;76.71;100266.91;5040669;28;20090;-60
2023/01/13 07:05:05;;;;;;;7.32;1.25;;;;;;;8.52;76.45;100272.03;5034566;28;20041;-60
2023/01/13 07:07:32;;;;;;;7.35;1.25;;;;;;;8.55;76.56;100281.44;5057166;28;20080;-60
2023/01/13 07:09:58;;;;;;;3.92;1.27;;;;;;;8.63;75.73;100271.09;5058115;28;20028;-60
2023/01/13 07:12:23;;;;;;;4.40;0.98;;;;;;;8.94;72.38;100259.63;5056427;28;20044;-60
2023/01/13 07:17:32;;;;;;;5.88;1.20;;;;;;;9.10;73.25;100256.03;5043260;28;20074;-61
2023/01/13 07:19:58;;;;;;;2.58;0.65;;;;;;;9.03;72.46;100265.56;5058041;28;20119;-63
2023/01/13 07:22:23;;;;;;;4.55;0.68;;;;;;;8.94;72.36;100251.91;5060448;28;20056;-63
2023/01/13 07:24:49;;;;;;;2.90;1.45;;;;;;;8.87;72.09;100248.53;5040188;28;20028;-64
2023/01/13 07:27:14;;;;;;;2.58;0.70;;;;;;;8.77;72.85;100267.53;5058057;28;20045;-64
2023/01/13 07:29:40;;;;;;;1.98;0.63;;;;;;;8.76;72.81;100270.13;5057086;28;20147;-64
2023/01/13 07:32:06;;;;;;;2.65;0.73;;;;;;;8.76;72.51;100265.81;5036700;28;20123;-64
2023/01/13 07:34:32;;;;;;;2.78;0.77;;;;;;;8.74;74.30;100277.88;5056623;28;20115;-63
2023/01/13 07:36:57;;;;;;;2.63;0.80;;;;;;;8.73;73.65;100280.44;5056815;28;20589;-64
2023/01/13 07:39:22;;;;;;;4.28;0.95;;;;;;;8.71;74.62;100290.78;5054629;28;21013;-63
2023/01/13 07:44:32;;;;;;;8.23;1.00;;;;;;;8.68;75.08;100300.25;5056720;28;20489;-63
2023/01/13 07:46:57;;;;;;;4.88;1.00;;;;;;;8.70;76.32;100304.53;5060100;28;20028;-62
2023/01/13 07:49:23;;;;;;;4.00;1.10;;;;;;;8.71;75.97;100318.25;5041763;28;20028;-63
2023/01/13 07:51:48;;;;;;;2.97;1.00;;;;;;;8.74;76.42;100341.44;5039280;28;20136;-63
2023/01/13 07:54:14;;;;;;;7.82;1.23;;;;;;;8.70;78.06;100344.88;5060086;28;20043;-64
2023/01/13 07:56:39;;;;;;;5.95;1.95;;;;;;;8.52;79.34;100327.84;5059123;28;20686;-63
2023/01/13 07:59:04;;;;;;;5.95;1.10;;;;;;;8.29;80.94;100335.72;5056371;28;20147;-64
2023/01/13 08:01:30;;;;;;;6.93;1.30;;;;;;;8.11;81.38;100337.53;5057103;28;20528;-63
2023/01/13 08:03:57;;;;;;;4.55;1.20;;;;;;;7.98;82.14;100327.31;5060213;28;20029;-63
2023/01/13 08:06:24;;;;;;;4.75;1.33;;;;;;;7.90;81.55;100323.94;5057328;28;20032;-63
2023/01/13 08:08:49;;;;;;;6.68;1.10;;;;;;;7.81;81.81;100334.25;5053346;28;20063;-63
2023/01/13 08:11:15;;;;;;;6.72;1.30;;;;;;;7.78;81.93;100333.41;5056182;28;20568;-63
2023/01/13 08:13:40;;;;;;;6.00;1.02;;;;;;;7.75;81.25;100336.00;5049312;28;20033;-64
2023/01/13 08:16:12;;;;;;;2.63;1.00;;;;;;;7.71;81.22;100332.59;5037172;28;20387;-64
2023/01/13 08:18:38;;;;;;;1.80;1.20;;;;;;;7.66;81.34;100336.03;5038219;28;20081;-64
2023/01/13 08:21:06;;;;;;;3.67;0.90;;;;;;;7.59;81.56;100331.78;5038760;28;20025;-63
2023/01/13 08:23:32;;;;;;;3.13;0.80;;;;;;;7.58;81.82;100343.78;5038516;28;20041;-63
2023/01/13 08:26:03;;;;;;;2.65;1.00;;;;;;;7.55;81.59;100337.78;5037626;28;20060;-64
2023/01/13 08:28:28;;;;;;;4.65;1.00;;;;;;;7.55;81.95;100336.06;5041324;28;20393;-63
2023/01/13 08:30:57;;;;;;;5.95;0.80;;;;;;;7.55;81.76;100337.78;5042530;28;20041;-63
2023/01/13 08:33:22;;;;;;;4.45;0.80;;;;;;;7.58;81.70;100332.63;5041364;28;20043;-63
2023/01/13 08:35:51;;;;;;;18.27;2.55;;;;;;;7.65;80.71;100329.19;5035745;28;20036;-63
2023/01/13 08:38:17;;;;;;;9.02;1.92;;;;;;;7.68;80.54;100332.63;5035168;28;20047;-63
2023/01/13 08:40:42;;;;;;;13.23;1.55;;;;;;;7.77;80.27;100334.28;5036059;28;20456;-63
2023/01/13 08:43:07;;;;;;;4.57;1.20;;;;;;;7.90;79.03;100336.78;5039840;28;20025;-63
2023/01/13 08:45:34;;;;;;;4.30;1.30;;;;;;;7.92;78.99;100335.06;5039470;28;20430;-64
2023/01/13 08:48:00;;;;;;;8.45;1.50;;;;;;;8.01;78.35;100326.47;5037907;28;20052;-65
2023/01/13 08:50:25;;;;;;;6.32;1.65;;;;;;;8.09;77.79;100334.13;5037884;28;20056;-64
2023/01/13 08:52:51;;;;;;;4.50;1.45;;;;;;;8.14;77.92;100337.53;5037139;28;20075;-64
2023/01/13 08:55:16;;;;;;;12.13;1.83;;;;;;;8.22;76.97;100341.75;5039879;28;20060;-64
2023/01/13 08:57:41;;;;;;;8.43;1.98;;;;;;;8.29;76.60;100350.31;5038983;28;20033;-66
2023/01/13 09:00:08;;;;;;;10.93;2.33;;;;;;;8.39;75.60;100360.56;5038076;28;20140;-65
2023/01/13 09:02:33;;;;;;;4.90;1.25;;;;;;;8.54;74.69;100359.63;5038013;28;20055;-64
2023/01/13 09:05:02;;;;;;;12.73;2.00;;;;;;;8.67;73.60;100360.38;5036895;28;20504;-64
2023/01/13 09:07:29;;;;;;;10.80;2.25;;;;;;;8.84;72.08;100356.78;5035397;28;20024;-65
2023/01/13 09:09:55;;;;;;;9.27;1.73;;;;;;;8.97;72.35;100352.41;5032464;28;20033;-64
2023/01/13 09:15:06;;;;;;;14.07;2.58;;;;;;;9.06;71.37;100355.75;5032969;28;20043;-63
2023/01/13 09:17:31;;;;;;;14.27;2.58;;;;;;;9.06;71.34;100354.91;5033691;28;20037;-63
2023/01/13 09:19:57;;;;;;;13.32;2.97;;;;;;;9.07;70.20;100323.97;5033655;28;20063;-63
2023/01/13 09:22:25;;;;;;;13.85;2.63;;;;;;;9.14;69.75;100337.63;5030612;28;20403;-64
2023/01/13 09:24:51;;;;;;;9.60;2.15;;;;;;;9.26;70.07;100334.94;5034366;28;20086;-64
2023/01/13 09:27:17;;;;;;;13.52;3.65;;;;;;;9.45;68.06;100307.22;5039576;28;20037;-64
2023/01/13 09:29:42;;;;;;;10.38;2.20;;;;;;;9.50;67.68;100318.34;5038751;28;20051;-64
2023/01/13 09:32:12;;;;;;;12.77;2.28;;;;;;;9.54;68.36;100309.72;5036691;28;20136;-63
2023/01/13 09:37:21;;;;;;;7.82;1.67;;;;;;;9.56;67.31;100305.38;5032614;28;20180;-64
2023/01/13 09:39:46;;;;;;;11.05;2.63;;;;;;;9.55;67.78;100316.59;5038055;28;20041;-63
2023/01/13 09:45:31;;;;;;;7.95;1.98;;;;;;;9.63;66.54;100284.69;5036978;28;20099;-64
2023/01/13 09:48:11;;;;;;;11.77;2.13;;;;;;;9.67;66.90;100291.50;5037208;28;20071;-64
2023/01/13 09:50:50;;;;;;;11.38;2.80;;;;;;;9.74;65.58;100289.72;5038359;28;20041;-65
2023/01/13 09:53:23;;;;;;;10.35;2.20;;;;;;;9.81;64.83;100275.00;5031517;28;20570;-64
2023/01/13 09:55:48;;;;;;;13.20;2.30;;;;;;;9.84;65.12;100288.72;5032792;28;20174;-65
2023/01/13 09:58:16;;;;;;;11.27;2.10;;;;;;;9.90;65.49;100278.31;5032503;28;20717;-65
2023/01/13 10:00:45;;;;;;;13.43;2.10;;;;;;;9.95;65.95;100280.81;5038038;28;20040;-65
2023/01/13 10:03:17;;;;;;;16.45;2.83;;;;;;;10.06;64.78;100272.06;5036640;28;20067;-66
2023/01/13 10:05:57;;;;;;;14.50;2.25;;;;;;;10.14;63.85;100249.59;5033810;28;20042;-64
2023/01/13 10:08:29;;;;;;;12.93;2.15;;;;;;;10.16;63.75;100252.13;5029337;28;20029;-64
2023/01/13 10:13:12;;;;;;;12.35;2.15;;;;;;;10.12;64.55;100268.53;5037866;28;20033;-66
2023/01/13 10:13:58;;;;;;;11.35;2.67;;;;;;;10.15;64.23;100237.50;5036575;28;20029;-65
2023/01/13 10:16:57;;;;;;;10.88;1.92;;;;;;;10.15;64.70;100248.69;5040328;28;20025;-65
2023/01/13 10:19:35;;;;;;;11.43;2.13;;;;;;;10.16;64.04;100252.97;5039780;28;20044;-65
2023/01/13 10:22:07;;;;;;;9.00;1.63;;;;;;;10.22;64.77;100262.38;5045977;28;20445;-65
2023/01/13 10:24:41;;;;;;;9.45;2.15;;;;;;;10.29;64.09;100260.56;5035282;28;20045;-64
2023/01/13 10:27:15;;;;;;;8.60;1.80;;;;;;;10.39;64.20;100256.94;5038787;28;20037;-60
2023/01/13 10:29:41;;;;;;;15.43;2.45;;;;;;;10.45;64.42;100270.59;5036863;28;20045;-61
2023/01/13 10:32:06;;;;;;;9.55;2.00;;;;;;;10.56;63.74;100262.69;5033498;28;20778;-64
2023/01/13 10:34:50;;;;;;;9.80;1.70;;;;;;;10.68;62.88;100244.41;5029528;28;20138;-64
2023/01/13 10:37:22;;;;;;;17.27;2.70;;;;;;;10.78;62.81;100248.53;5040990;28;20523;-64
2023/01/13 10:39:50;;;;;;;12.50;2.10;;;;;;;10.90;62.31;100244.88;5041389;28;20794;-65
2023/01/13 10:42:20;;;;;;;13.65;2.15;;;;;;;10.89;61.17;100212.97;5041855;28;20095;-66
2023/01/13 10:44:53;;;;;;;10.25;1.92;;;;;;;10.86;62.72;100249.22;5034330;28;20506;-63
2023/01/13 10:47:23;;;;;;;7.97;1.88;;;;;;;10.75;62.24;100244.25;5039884;28;20043;-63
2023/01/13 10:50:07;;;;;;;15.45;3.08;;;;;;;10.67;61.51;100246.13;5051896;28;20098;-66
2023/01/13 10:52:40;;;;;;;10.77;2.47;;;;;;;10.68;62.20;100234.91;5036548;28;20056;-63
2023/01/13 10:55:29;;;;;;;13.05;2.33;;;;;;;10.72;62.06;100258.97;5037657;28;20140;-63
2023/01/13 10:57:54;;;;;;;15.43;2.95;;;;;;;10.82;61.09;100229.50;5040813;28;20120;-64
2023/01/13 11:00:29;;;;;;;14.45;3.03;;;;;;;10.97;60.89;100255.09;5037947;28;20068;-64
2023/01/13 11:03:13;;;;;;;11.82;2.92;;;;;;;11.13;60.24;100209.94;5038065;28;20427;-64
2023/01/13 11:05:38;;;;;;;7.65;2.05;;;;;;;11.22;60.00;100224.41;5036619;28;20067;-63
2023/01/13 11:08:04;;;;;;;10.23;2.20;;;;;;;11.24;60.36;100236.47;5033163;28;20490;-63
2023/01/13 11:10:32;;;;;;;16.15;3.33;;;;;;;11.17;59.46;100231.44;5034417;28;20031;-64
2023/01/13 11:13:15;;;;;;;11.68;2.38;;;;;;;11.16;59.76;100233.16;5038649;28;20037;-65
2023/01/13 11:15:56;;;;;;;14.13;2.28;;;;;;;11.18;59.67;100217.63;5039434;28;20072;-64
2023/01/13 11:18:42;;;;;;;11.25;2.17;;;;;;;11.16;59.95;100243.50;5035197;28;20072;-64
2023/01/13 11:21:22;;;;;;;14.73;2.42;;;;;;;11.18;59.46;100246.06;5039430;28;20037;-64
2023/01/13 11:24:01;;;;;;;14.88;2.85;;;;;;;11.23;59.16;100259.78;5039177;28;20036;-64
2023/01/13 11:26:43;;;;;;;11.23;2.65;;;;;;;11.32;60.06;100264.75;5037668;28;20033;-64
2023/01/13 11:29:21;;;;;;;16.63;2.97;;;;;;;11.48;59.98;100262.78;5035796;28;20033;-64
2023/01/13 11:31:50;;;;;;;14.07;2.55;;;;;;;11.53;58.68;100248.84;5044949;28;20054;-65
2023/01/13 11:34:38;;;;;;;13.65;2.30;;;;;;;11.54;58.28;100223.81;5056072;28;20060;-64
2023/01/13 11:37:13;;;;;;;8.80;2.42;;;;;;;11.39;57.31;100231.88;5036748;28;20033;-69
2023/01/13 11:39:38;;;;;;;9.75;2.00;;;;;;;11.34;57.80;100253.50;5036714;28;20509;-65
2023/01/13 11:42:20;;;;;;;13.85;2.55;;;;;;;11.30;58.58;100269.13;5038017;28;20043;-63
2023/01/13 11:45:10;;;;;;;13.07;2.95;;;;;;;11.32;57.78;100277.69;5032766;28;20065;-65
2023/01/13 11:47:37;;;;;;;15.25;2.72;;;;;;;11.33;58.52;100257.00;5036112;28;20037;-65
2023/01/13 11:50:12;;;;;;;15.77;3.25;;;;;;;11.44;56.89;100243.84;5045024;28;20036;-65
2023/01/13 11:52:37;;;;;;;;;;;;;;;11.60;57.11;100242.69;5056554;28;20029;-67
2023/01/13 11:55:17;;;;;;;15.45;3.13;;;;;;;11.69;57.68;100259.75;5040310;28;19917;-65
2023/01/13 11:57:56;;;;;;;8.68;1.73;;;;;;;11.60;55.61;100214.19;5038538;28;20045;-60
2023/01/13 12:00:35;;;;;;;11.07;2.15;;;;;;;11.65;56.95;100235.66;5056645;28;20089;-61
2023/01/13 12:03:44;;;;;;;9.90;2.70;;;;;;;11.57;55.71;100227.22;5042028;28;20037;-62
2023/01/13 12:06:35;;;;;;;13.80;2.40;;;;;;;11.40;56.62;100252.53;5021217;28;20116;-64
2023/01/13 12:09:20;;;;;;;9.95;1.75;;;;;;;11.19;59.54;100315.88;5051730;28;20040;-63
2023/01/13 12:12:21;;;;;;;12.75;2.45;;;;;;;10.74;65.71;100441.59;5043824;28;20033;-60
2023/01/13 12:15:03;;;;;;;9.00;2.30;;;;;;;10.37;68.45;100494.66;5043057;28;20048;-61
2023/01/13 12:17:43;;;;;;;11.85;1.80;;;;;;;10.31;69.07;100486.97;5045995;28;20668;-61
2023/01/13 12:20:37;;;;;;;9.40;1.70;;;;;;;10.39;69.85;100474.81;5042451;28;20043;-61
2023/01/13 12:23:14;;;;;;;13.93;1.77;;;;;;;10.57;67.06;100417.72;5026830;28;20061;-61
2023/01/13 12:25:44;;;;;;;9.95;1.50;;;;;;;10.60;66.04;100411.66;5043057;28;20097;-62